Time;durP1;ratioP1;P1;durP2;ratioP2;P2;SDS_P1;SDS_P2;PMS_P1;PMS_P2;Temp;Humidity;BMP_temperature;BMP_pressure;BME280_temperature;BME280_humidity;BME280_pressure;Samples;Min_cycle;Max_cycle;Signal;HPM_P1;HPM_P2
2023/07/25 00:01:07;;;;;;;57.50;37.30;;;26.50;99.90;;;;;;5025967;28;20021;-64
2023/07/25 00:03:33;;;;;;;51.55;29.67;;;26.60;99.90;;;;;;5025291;28;20030;-65
2023/07/25 00:06:03;;;;;;;52.05;29.20;;;26.70;99.90;;;;;;5026804;28;20024;-64
2023/07/25 00:08:30;;;;;;;42.03;22.20;;;26.60;99.90;;;;;;5025828;28;20030;-64
2023/07/25 00:10:57;;;;;;;44.08;25.02;;;26.80;99.90;;;;;;5024697;28;20396;-64
2023/07/25 00:13:23;;;;;;;44.50;23.67;;;26.90;99.90;;;;;;5026363;28;20071;-64
2023/07/25 00:15:51;;;;;;;52.40;34.22;;;26.90;99.90;;;;;;5015939;28;20026;-65
2023/07/25 00:18:17;;;;;;;50.65;29.98;;;27.00;99.90;;;;;;5015837;28;20034;-64
2023/07/25 00:20:44;;;;;;;47.75;27.83;;;27.00;99.90;;;;;;5015592;28;20030;-64
2023/07/25 00:23:10;;;;;;;47.00;30.27;;;27.00;99.90;;;;;;5015739;28;20088;-65
2023/07/25 00:25:37;;;;;;;66.60;40.30;;;27.10;99.90;;;;;;5015640;28;20025;-64
2023/07/25 00:28:04;;;;;;;78.47;49.80;;;26.90;99.90;;;;;;5024701;28;20064;-66
2023/07/25 00:30:30;;;;;;;45.70;29.00;;;27.00;99.90;;;;;;5035205;28;20401;-64
2023/07/25 00:32:57;;;;;;;59.30;38.63;;;27.00;99.90;;;;;;5035221;28;20045;-64
2023/07/25 00:35:23;;;;;;;84.05;59.17;;;26.90;99.90;;;;;;5034926;28;20037;-65
2023/07/25 00:37:50;;;;;;;49.88;31.88;;;27.00;99.90;;;;;;5035256;28;20032;-66
2023/07/25 00:40:16;;;;;;;51.70;32.90;;;27.00;99.90;;;;;;5035215;28;20038;-65
2023/07/25 00:42:43;;;;;;;43.05;24.98;;;26.90;99.90;;;;;;5035183;28;20022;-66
2023/07/25 00:45:09;;;;;;;35.78;22.58;;;26.90;99.90;;;;;;5017759;28;20475;-65
2023/07/25 00:47:36;;;;;;;34.42;24.15;;;26.90;99.90;;;;;;5015298;28;20632;-65
2023/07/25 00:50:03;;;;;;;44.35;24.75;;;27.00;99.90;;;;;;5015072;28;20390;-66
2023/07/25 00:52:30;;;;;;;35.40;20.10;;;27.00;99.90;;;;;;5015268;28;20534;-65
2023/07/25 00:54:56;;;;;;;27.95;19.95;;;27.00;99.90;;;;;;5015180;28;20471;-65
2023/07/25 00:57:23;;;;;;;33.28;19.40;;;27.00;99.90;;;;;;5015173;28;20022;-63
2023/07/25 00:59:49;;;;;;;28.20;19.27;;;27.10;99.90;;;;;;5015076;28;20048;-63
2023/07/25 01:02:16;;;;;;;28.55;18.33;;;27.10;99.90;;;;;;5014983;28;20026;-64
2023/07/25 01:04:43;;;;;;;32.65;17.73;;;27.10;99.90;;;;;;5014784;28;20033;-62
2023/07/25 01:07:14;;;;;;;27.63;16.95;;;27.20;99.90;;;;;;5015209;28;20030;-64
2023/07/25 01:09:43;;;;;;;25.92;18.60;;;27.30;99.90;;;;;;5014961;28;20433;-64
2023/07/25 01:12:11;;;;;;;31.17;20.08;;;27.30;99.90;;;;;;5014739;28;20030;-62
2023/07/25 01:14:39;;;;;;;120.05;93.30;;;27.40;99.90;;;;;;5015110;28;20022;-63
2023/07/25 01:17:09;;;;;;;39.08;28.05;;;27.50;99.90;;;;;;5017379;28;20033;-64
2023/07/25 01:19:37;;;;;;;42.15;32.92;;;27.50;99.90;;;;;;5034371;28;20093;-65
2023/07/25 01:22:05;;;;;;;43.83;32.13;;;27.60;99.90;;;;;;5015781;28;20372;-64
2023/07/25 01:24:32;;;;;;;38.80;27.83;;;27.70;99.90;;;;;;5014503;28;20105;-64
2023/07/25 01:26:58;;;;;;;41.42;29.05;;;27.80;99.90;;;;;;5014423;28;20052;-64
2023/07/25 01:29:25;;;;;;;28.98;21.75;;;27.90;99.90;;;;;;5014384;28;20510;-63
2023/07/25 01:31:51;;;;;;;27.05;19.38;;;27.90;99.90;;;;;;5033366;28;20033;-63
2023/07/25 01:34:18;;;;;;;28.20;18.02;;;28.00;99.90;;;;;;5034463;28;20032;-64
2023/07/25 01:36:44;;;;;;;24.60;18.02;;;28.00;99.90;;;;;;5034206;28;20033;-64
2023/07/25 01:39:11;;;;;;;24.52;17.35;;;28.10;99.90;;;;;;5034309;28;20024;-64
2023/07/25 01:41:38;;;;;;;25.33;16.45;;;28.10;99.90;;;;;;5034088;28;20497;-64
2023/07/25 01:44:05;;;;;;;24.58;17.58;;;28.20;99.90;;;;;;5033910;28;20030;-64
2023/07/25 01:46:31;;;;;;;23.95;17.30;;;28.30;99.90;;;;;;5033317;28;20029;-62
2023/07/25 01:48:58;;;;;;;56.67;41.03;;;28.30;99.90;;;;;;5033910;28;20049;-64
2023/07/25 01:51:26;;;;;;;31.77;22.00;;;28.30;99.90;;;;;;5033950;28;20020;-64
2023/07/25 01:53:53;;;;;;;24.15;17.67;;;28.40;99.90;;;;;;5034160;28;20029;-64
2023/07/25 01:56:21;;;;;;;27.02;17.85;;;28.50;99.90;;;;;;5033663;28;20075;-64
2023/07/25 01:58:48;;;;;;;22.13;16.67;;;28.50;99.90;;;;;;5033992;28;20026;-64
2023/07/25 02:01:14;;;;;;;23.40;18.00;;;28.60;99.90;;;;;;5033641;28;20068;-64
2023/07/25 02:03:41;;;;;;;24.83;17.40;;;28.70;99.90;;;;;;5033426;28;20022;-62
2023/07/25 02:06:07;;;;;;;23.77;16.13;;;28.70;99.90;;;;;;5033934;28;20021;-62
2023/07/25 02:08:34;;;;;;;23.55;16.38;;;28.70;99.90;;;;;;5019556;28;20025;-63
2023/07/25 02:11:01;;;;;;;27.75;17.17;;;28.80;99.90;;;;;;5014038;28;20065;-63
2023/07/25 02:13:28;;;;;;;25.20;18.30;;;28.90;99.90;;;;;;5013789;28;20133;-62
2023/07/25 02:15:54;;;;;;;35.97;25.88;;;28.90;99.90;;;;;;5013840;28;20026;-63
2023/07/25 02:18:21;;;;;;;89.07;61.97;;;28.90;99.90;;;;;;5013705;28;20032;-62
2023/07/25 02:20:47;;;;;;;91.90;63.75;;;28.90;99.90;;;;;;5018771;28;20029;-64
2023/07/25 02:23:14;;;;;;;54.95;38.60;;;28.90;99.90;;;;;;5033509;28;20025;-64
2023/07/25 02:25:40;;;;;;;32.33;23.08;;;29.00;99.90;;;;;;5033271;28;20026;-64
2023/07/25 02:28:07;;;;;;;33.67;20.90;;;29.00;99.90;;;;;;5033315;28;20406;-64
2023/07/25 02:30:33;;;;;;;27.20;19.85;;;29.00;99.90;;;;;;5033176;28;20041;-64
2023/07/25 02:33:00;;;;;;;27.85;19.25;;;29.00;99.90;;;;;;5033436;28;20026;-63
2023/07/25 02:35:26;;;;;;;29.00;19.20;;;29.20;99.90;;;;;;5033248;28;20025;-65
2023/07/25 02:37:53;;;;;;;26.20;18.05;;;29.20;99.90;;;;;;5033402;28;20025;-64
2023/07/25 02:40:19;;;;;;;182.02;148.88;;;29.20;99.90;;;;;;5033563;28;20026;-64
2023/07/25 02:42:46;;;;;;;39.22;29.70;;;29.30;99.90;;;;;;5033332;28;20483;-62
2023/07/25 02:45:13;;;;;;;22.58;16.67;;;29.40;99.90;;;;;;5033178;28;20116;-63
2023/07/25 02:47:39;;;;;;;22.95;18.20;;;29.40;99.90;;;;;;5033612;28;20056;-63
2023/07/25 02:50:06;;;;;;;21.88;16.75;;;29.50;99.90;;;;;;5032925;28;20075;-65
2023/07/25 02:52:33;;;;;;;24.05;18.48;;;29.60;99.90;;;;;;5033123;28;20022;-63
2023/07/25 02:54:59;;;;;;;24.60;18.17;;;29.60;99.90;;;;;;5033218;28;20025;-63
2023/07/25 02:57:26;;;;;;;26.48;18.63;;;29.60;99.90;;;;;;5035177;28;20032;-65
2023/07/25 02:59:52;;;;;;;24.95;19.58;;;29.70;99.90;;;;;;5037155;28;20039;-63
2023/07/25 03:02:19;;;;;;;30.02;20.35;;;29.60;99.90;;;;;;5037641;28;20386;-64
2023/07/25 03:04:45;;;;;;;29.10;20.35;;;29.70;99.90;;;;;;5037202;28;20037;-63
2023/07/25 03:07:12;;;;;;;25.55;20.23;;;29.70;99.90;;;;;;5037348;28;20017;-63
2023/07/25 03:09:40;;;;;;;30.45;20.67;;;29.70;99.90;;;;;;5037087;28;20022;-64
2023/07/25 03:12:07;;;;;;;29.25;19.08;;;29.80;99.90;;;;;;5028731;28;20396;-63
2023/07/25 03:14:33;;;;;;;28.95;18.88;;;29.80;99.90;;;;;;5023114;28;20475;-63
2023/07/25 03:17:00;;;;;;;25.83;18.98;;;29.90;99.90;;;;;;5017108;28;20034;-64
2023/07/25 03:19:26;;;;;;;24.27;17.92;;;30.00;99.90;;;;;;5016890;28;20034;-62
2023/07/25 03:21:53;;;;;;;26.10;18.75;;;30.00;99.90;;;;;;5016906;28;20041;-64
2023/07/25 03:24:19;;;;;;;25.25;18.83;;;30.10;99.90;;;;;;5016748;28;20034;-63
2023/07/25 03:26:46;;;;;;;24.67;19.13;;;30.10;99.90;;;;;;5016831;28;20025;-64
2023/07/25 03:29:13;;;;;;;31.48;21.05;;;30.20;99.90;;;;;;5026053;28;20057;-63
2023/07/25 03:31:39;;;;;;;27.70;20.25;;;30.20;99.90;;;;;;5026526;28;20018;-64
2023/07/25 03:34:07;;;;;;;37.47;22.40;;;30.30;99.90;;;;;;5027813;28;20486;-63
2023/07/25 03:36:33;;;;;;;26.83;18.02;;;30.40;99.90;;;;;;5027570;28;20034;-64
2023/07/25 03:39:00;;;;;;;29.58;19.80;;;30.40;99.90;;;;;;5028878;28;20026;-64
2023/07/25 03:41:26;;;;;;;28.20;19.80;;;30.40;99.90;;;;;;5036322;28;20064;-64
2023/07/25 03:43:53;;;;;;;28.00;19.67;;;30.50;99.90;;;;;;5036396;28;20082;-64
2023/07/25 03:46:19;;;;;;;21.73;17.50;;;30.50;99.90;;;;;;5036397;28;20018;-64
2023/07/25 03:48:46;;;;;;;21.98;17.73;;;30.50;99.90;;;;;;5030418;28;20026;-64
2023/07/25 03:51:12;;;;;;;25.63;17.90;;;30.60;99.90;;;;;;5025214;28;20100;-64
2023/07/25 03:53:39;;;;;;;28.13;18.95;;;30.60;99.90;;;;;;5026976;28;20095;-64
2023/07/25 03:56:07;;;;;;;26.48;18.02;;;30.70;99.90;;;;;;5025164;28;20049;-64
2023/07/25 03:58:33;;;;;;;25.27;18.80;;;30.70;99.90;;;;;;5026696;28;20041;-64
2023/07/25 04:01:00;;;;;;;18.02;15.07;;;30.70;99.90;;;;;;5027901;28;20025;-64
2023/07/25 04:03:26;;;;;;;20.77;15.85;;;30.70;99.90;;;;;;5027219;28;20466;-64
2023/07/25 04:05:53;;;;;;;23.48;16.17;;;30.80;99.90;;;;;;5025954;28;20026;-64
2023/07/25 04:08:19;;;;;;;22.40;17.00;;;30.90;99.90;;;;;;5024253;28;20025;-63
2023/07/25 04:10:46;;;;;;;24.40;18.65;;;30.90;99.90;;;;;;5031854;28;20040;-64
2023/07/25 04:13:13;;;;;;;26.27;18.52;;;30.90;99.90;;;;;;5036361;28;20018;-63
2023/07/25 04:15:39;;;;;;;20.58;16.00;;;30.90;99.90;;;;;;5036337;28;20446;-65
2023/07/25 04:18:06;;;;;;;30.95;19.02;;;31.00;99.90;;;;;;5035827;28;20113;-64
2023/07/25 04:20:32;;;;;;;32.63;20.05;;;31.00;99.90;;;;;;5035593;28;20036;-65
2023/07/25 04:22:59;;;;;;;40.65;21.38;;;31.10;99.90;;;;;;5035664;28;20386;-65
2023/07/25 04:25:25;;;;;;;28.42;17.88;;;31.10;99.90;;;;;;5032256;28;20025;-64
2023/07/25 04:27:52;;;;;;;22.92;15.27;;;31.20;99.90;;;;;;5015674;28;20029;-64
2023/07/25 04:30:18;;;;;;;23.45;14.75;;;31.20;99.90;;;;;;5016461;28;20502;-64
2023/07/25 04:32:45;;;;;;;23.23;14.65;;;31.20;99.90;;;;;;5019721;28;20426;-63
2023/07/25 04:35:11;;;;;;;26.77;16.13;;;31.10;99.90;;;;;;5026551;28;20022;-62
2023/07/25 04:37:38;;;;;;;24.25;15.93;;;31.20;99.90;;;;;;5024051;28;20046;-64
2023/07/25 04:40:05;;;;;;;27.67;17.02;;;31.20;99.90;;;;;;5025019;28;20017;-64
2023/07/25 04:42:31;;;;;;;21.45;14.98;;;31.30;99.90;;;;;;5020129;28;20033;-63
2023/07/25 04:44:58;;;;;;;24.77;13.60;;;31.40;99.90;;;;;;5020128;28;20037;-64
2023/07/25 04:47:24;;;;;;;17.92;13.23;;;31.40;99.90;;;;;;5025764;28;20064;-65
2023/07/25 04:49:51;;;;;;;19.38;12.40;;;31.40;99.90;;;;;;5016047;28;20021;-65
2023/07/25 04:52:17;;;;;;;20.90;13.82;;;31.50;99.90;;;;;;5015132;28;20045;-64
2023/07/25 04:54:44;;;;;;;14.25;11.43;;;31.50;99.90;;;;;;5015180;28;20502;-63
2023/07/25 04:57:10;;;;;;;19.08;13.48;;;31.50;99.90;;;;;;5015076;28;20056;-61
2023/07/25 04:59:37;;;;;;;21.55;14.38;;;31.50;99.90;;;;;;5015286;28;20033;-62
2023/07/25 05:02:03;;;;;;;22.25;14.77;;;31.50;99.90;;;;;;5015133;28;20549;-62
2023/07/25 05:04:30;;;;;;;17.15;12.50;;;31.50;99.90;;;;;;5014948;28;20109;-62
2023/07/25 05:06:57;;;;;;;20.77;13.00;;;31.50;99.90;;;;;;5015047;28;20018;-62
2023/07/25 05:09:23;;;;;;;16.25;11.73;;;31.60;99.90;;;;;;5014663;28;20036;-63
2023/07/25 05:11:51;;;;;;;20.05;11.65;;;31.60;99.90;;;;;;5017292;28;20443;-63
2023/07/25 05:14:18;;;;;;;16.13;10.80;;;31.60;99.90;;;;;;5023227;28;20049;-63
2023/07/25 05:16:44;;;;;;;12.35;9.90;;;31.60;99.90;;;;;;5014650;28;20083;-62
2023/07/25 05:19:11;;;;;;;16.52;11.48;;;31.70;99.90;;;;;;5014617;28;20026;-64
2023/07/25 05:21:37;;;;;;;18.83;12.68;;;31.70;99.90;;;;;;5014698;28;20030;-63
2023/07/25 05:24:04;;;;;;;17.60;10.27;;;31.70;99.90;;;;;;5014417;28;20038;-62
2023/07/25 05:26:31;;;;;;;14.35;10.52;;;31.80;99.90;;;;;;5014445;28;20049;-63
2023/07/25 05:28:57;;;;;;;14.27;9.98;;;31.80;99.90;;;;;;5014446;28;20065;-66
2023/07/25 05:31:24;;;;;;;14.90;10.73;;;31.80;99.90;;;;;;5014556;28;20084;-65
2023/07/25 05:33:50;;;;;;;13.13;10.10;;;31.80;99.90;;;;;;5014294;28;20033;-65
2023/07/25 05:36:17;;;;;;;16.90;11.02;;;31.80;99.90;;;;;;5014099;28;20034;-65
2023/07/25 05:38:43;;;;;;;14.35;11.27;;;31.80;99.90;;;;;;5014299;28;20057;-66
2023/07/25 05:41:10;;;;;;;11.82;8.90;;;31.80;99.90;;;;;;5014654;28;20379;-65
2023/07/25 05:43:36;;;;;;;13.55;8.98;;;31.70;99.90;;;;;;5015756;28;20014;-65
2023/07/25 05:46:03;;;;;;;10.75;8.77;;;31.70;99.90;;;;;;5031605;28;20033;-63
2023/07/25 05:48:30;;;;;;;10.98;9.05;;;31.80;99.90;;;;;;5034921;28;20093;-63
2023/07/25 05:50:56;;;;;;;10.80;8.25;;;31.80;99.90;;;;;;5034454;28;20536;-63
2023/07/25 05:53:23;;;;;;;11.20;9.52;;;31.90;99.90;;;;;;5034173;28;20030;-63
2023/07/25 05:55:49;;;;;;;18.50;11.77;;;31.90;99.90;;;;;;5034258;28;20033;-63
2023/07/25 05:58:16;;;;;;;16.90;10.77;;;32.10;99.90;;;;;;5034224;28;20025;-63
2023/07/25 06:00:44;;;;;;;15.40;10.40;;;32.10;99.90;;;;;;5033865;28;20029;-63
2023/07/25 06:03:13;;;;;;;12.25;10.15;;;32.20;99.90;;;;;;5034234;28;20023;-64
2023/07/25 06:05:40;;;;;;;12.35;9.30;;;32.20;99.90;;;;;;5016091;28;20386;-63
2023/07/25 06:08:07;;;;;;;12.30;9.48;;;32.40;99.90;;;;;;5033986;28;20525;-65
2023/07/25 06:10:36;;;;;;;15.50;9.98;;;32.50;99.90;;;;;;5033636;28;20022;-64
2023/07/25 06:13:04;;;;;;;19.23;9.93;;;32.50;99.90;;;;;;5033851;28;20021;-62
2023/07/25 06:15:34;;;;;;;14.35;9.15;;;32.40;99.90;;;;;;5033711;28;20065;-66
2023/07/25 06:18:04;;;;;;;16.95;10.38;;;32.30;99.90;;;;;;5033789;28;20537;-63
2023/07/25 06:20:32;;;;;;;13.88;9.80;;;32.30;99.90;;;;;;5032964;28;20371;-63
2023/07/25 06:23:00;;;;;;;17.13;10.45;;;32.30;99.90;;;;;;5032609;28;20057;-63
2023/07/25 06:25:26;;;;;;;14.73;10.07;;;32.30;99.90;;;;;;5033370;28;20359;-63
2023/07/25 06:27:54;;;;;;;12.50;10.43;;;32.30;99.90;;;;;;5033738;28;20017;-63
2023/07/25 06:30:21;;;;;;;10.65;9.05;;;32.40;99.90;;;;;;5033585;28;20045;-68
2023/07/25 06:32:47;;;;;;;11.50;8.90;;;32.40;99.90;;;;;;5032395;28;20033;-63
2023/07/25 06:35:14;;;;;;;14.30;9.45;;;32.30;99.90;;;;;;5033464;28;20474;-63
2023/07/25 06:37:41;;;;;;;16.23;10.35;;;32.20;99.90;;;;;;5033670;28;20083;-63
2023/07/25 06:40:08;;;;;;;13.82;9.85;;;32.40;99.90;;;;;;5033476;28;20029;-63
2023/07/25 06:42:34;;;;;;;17.40;10.02;;;32.40;99.90;;;;;;5033782;28;20025;-63
2023/07/25 06:45:02;;;;;;;14.55;10.75;;;32.50;99.90;;;;;;5033591;28;20108;-63
2023/07/25 06:47:29;;;;;;;15.65;10.30;;;32.60;99.90;;;;;;5033545;28;20123;-64
2023/07/25 06:49:55;;;;;;;13.43;8.93;;;32.80;99.90;;;;;;5033555;28;20021;-63
2023/07/25 06:52:22;;;;;;;12.90;8.50;;;32.80;99.90;;;;;;5033567;28;20030;-64
2023/07/25 06:54:48;;;;;;;13.50;9.45;;;32.80;99.90;;;;;;5033741;28;20026;-64
2023/07/25 06:57:15;;;;;;;18.77;11.43;;;32.90;99.90;;;;;;5033132;28;20029;-63
2023/07/25 06:59:41;;;;;;;12.55;8.77;;;33.10;99.90;;;;;;5033242;28;20033;-64
2023/07/25 07:02:08;;;;;;;15.15;9.52;;;33.20;99.90;;;;;;5033302;28;20036;-63
2023/07/25 07:04:34;;;;;;;9.85;7.75;;;33.20;99.90;;;;;;5033011;28;20021;-67
2023/07/25 07:07:01;;;;;;;10.63;7.53;;;33.20;99.90;;;;;;5032817;28;20025;-64
2023/07/25 07:09:27;;;;;;;10.63;7.25;;;33.20;99.90;;;;;;5033219;28;20029;-64
2023/07/25 07:11:54;;;;;;;7.95;6.53;;;33.00;99.90;;;;;;5033244;28;20382;-64
2023/07/25 07:14:21;;;;;;;9.10;7.10;;;33.00;99.90;;;;;;5033083;28;20030;-64
2023/07/25 07:16:47;;;;;;;10.20;7.10;;;33.00;99.90;;;;;;5032676;28;20045;-64
2023/07/25 07:19:14;;;;;;;11.68;7.63;;;33.10;99.90;;;;;;5033491;28;20056;-64
2023/07/25 07:21:40;;;;;;;11.90;8.13;;;33.20;99.90;;;;;;5033254;28;20473;-64
2023/07/25 07:24:07;;;;;;;13.52;9.25;;;33.20;99.90;;;;;;5032909;28;20026;-64
2023/07/25 07:26:33;;;;;;;9.18;7.18;;;33.30;99.90;;;;;;5032882;28;20381;-64
2023/07/25 07:29:00;;;;;;;11.48;7.43;;;33.40;99.90;;;;;;5032672;28;20457;-63
2023/07/25 07:31:27;;;;;;;9.82;8.05;;;33.50;99.90;;;;;;5033231;28;20028;-64
2023/07/25 07:34:07;;;;;;;9.85;6.45;;;33.50;99.90;;;;;;5032841;28;20092;-64
2023/07/25 07:36:34;;;;;;;8.27;6.57;;;33.40;99.90;;;;;;5033151;28;20037;-63
2023/07/25 07:39:00;;;;;;;11.57;9.20;;;33.40;99.90;;;;;;5033537;28;20026;-64
2023/07/25 07:41:27;;;;;;;15.43;10.27;;;33.40;99.90;;;;;;5033017;28;20017;-64
2023/07/25 07:43:54;;;;;;;17.33;10.32;;;33.30;99.90;;;;;;5034308;28;20069;-63
2023/07/25 07:46:20;;;;;;;13.15;9.27;;;33.30;99.90;;;;;;5036564;28;20375;-65
2023/07/25 07:48:47;;;;;;;15.15;9.52;;;33.20;99.90;;;;;;5036580;28;20017;-64
2023/07/25 07:51:13;;;;;;;14.48;9.88;;;33.10;99.90;;;;;;5036054;28;20101;-64
2023/07/25 07:53:40;;;;;;;14.13;9.40;;;33.00;99.90;;;;;;5036144;28;20014;-63
2023/07/25 07:56:08;;;;;;;12.48;9.85;;;33.00;99.90;;;;;;5036426;28;20021;-64
2023/07/25 07:58:34;;;;;;;14.70;9.88;;;33.00;99.90;;;;;;5036097;28;20033;-64
2023/07/25 08:01:01;;;;;;;17.17;10.55;;;32.90;99.90;;;;;;5036748;28;20104;-63
2023/07/25 08:03:27;;;;;;;14.57;9.93;;;32.80;99.90;;;;;;5036912;28;20099;-64
2023/07/25 08:05:57;;;;;;;13.73;9.15;;;32.80;99.90;;;;;;5036067;28;20025;-63
2023/07/25 08:08:23;;;;;;;13.85;9.43;;;32.80;99.90;;;;;;5036484;28;20028;-64
2023/07/25 08:10:50;;;;;;;11.70;8.82;;;32.80;99.90;;;;;;5035820;28;20022;-64
2023/07/25 08:13:16;;;;;;;10.60;9.13;;;32.80;99.90;;;;;;5035301;28;20052;-64
2023/07/25 08:15:44;;;;;;;11.75;8.60;;;32.80;99.90;;;;;;5035815;28;20030;-66
2023/07/25 08:18:10;;;;;;;11.82;9.32;;;32.80;99.90;;;;;;5035583;28;20037;-66
2023/07/25 08:20:37;;;;;;;17.55;10.82;;;32.90;99.90;;;;;;5036080;28;20543;-66
2023/07/25 08:23:03;;;;;;;21.33;12.25;;;32.90;99.90;;;;;;5035657;28;20065;-65
2023/07/25 08:25:30;;;;;;;16.70;11.98;;;33.00;99.90;;;;;;5035583;28;20025;-64
2023/07/25 08:27:56;;;;;;;14.88;10.43;;;33.10;99.90;;;;;;5035440;28;20399;-65
2023/07/25 08:30:23;;;;;;;19.17;11.43;;;33.10;99.90;;;;;;5035326;28;20049;-64
2023/07/25 08:32:49;;;;;;;17.63;12.38;;;33.10;99.90;;;;;;5035528;28;20103;-64
2023/07/25 08:35:16;;;;;;;19.63;13.35;;;33.10;99.90;;;;;;5035179;28;20075;-63
2023/07/25 08:37:42;;;;;;;14.70;12.05;;;33.00;99.90;;;;;;5035370;28;20394;-65
2023/07/25 08:40:10;;;;;;;11.25;9.43;;;33.00;99.90;;;;;;5035424;28;20029;-64
2023/07/25 08:42:41;;;;;;;13.30;9.43;;;33.00;99.90;;;;;;5034687;28;20026;-65
2023/07/25 08:45:09;;;;;;;17.17;10.38;;;32.90;99.90;;;;;;5035022;28;20033;-65
2023/07/25 08:47:40;;;;;;;12.13;8.82;;;32.80;99.90;;;;;;5035213;28;20539;-65
2023/07/25 08:50:14;;;;;;;14.30;9.77;;;32.80;99.90;;;;;;5035252;28;20496;-66
2023/07/25 08:52:46;;;;;;;14.55;10.73;;;32.80;99.90;;;;;;5035478;28;20058;-67
2023/07/25 08:55:12;;;;;;;13.73;10.43;;;32.80;99.90;;;;;;5034818;28;20029;-67
2023/07/25 08:57:40;;;;;;;26.42;13.73;;;32.80;99.90;;;;;;5035994;28;20029;-67
2023/07/25 09:00:07;;;;;;;22.75;13.60;;;32.70;99.90;;;;;;5035927;28;20068;-66
2023/07/25 09:02:34;;;;;;;13.80;10.80;;;32.70;99.90;;;;;;5034054;28;20025;-67
2023/07/25 09:05:01;;;;;;;16.80;10.05;;;32.70;99.90;;;;;;5034219;28;20028;-66
2023/07/25 09:07:28;;;;;;;13.77;8.98;;;32.70;99.90;;;;;;5035976;28;20390;-67
2023/07/25 09:09:54;;;;;;;10.32;7.75;;;32.70;99.90;;;;;;5034935;28;20022;-66
2023/07/25 09:12:21;;;;;;;112.63;83.35;;;32.70;99.90;;;;;;5034933;28;20022;-68
2023/07/25 09:14:48;;;;;;;98.43;76.10;;;32.70;99.90;;;;;;5035552;28;20021;-69
2023/07/25 09:17:14;;;;;;;59.78;44.40;;;32.70;99.90;;;;;;5035113;28;20021;-67
2023/07/25 09:19:41;;;;;;;84.32;65.18;;;32.70;99.90;;;;;;5035125;28;20509;-68
2023/07/25 09:22:29;;;;;;;56.88;44.67;;;32.70;99.90;;;;;;5034557;28;20037;-66
2023/07/25 09:24:56;;;;;;;53.20;39.17;;;32.70;99.90;;;;;;5033983;28;20029;-67
2023/07/25 09:27:23;;;;;;;30.33;19.40;;;32.70;99.90;;;;;;5035312;28;20088;-66
2023/07/25 09:29:51;;;;;;;27.25;22.08;;;32.70;99.90;;;;;;5034922;28;20445;-67
2023/07/25 09:32:21;;;;;;;59.00;43.17;;;32.70;99.90;;;;;;5033713;28;20031;-66
2023/07/25 09:34:57;;;;;;;57.45;40.10;;;32.70;99.90;;;;;;5032541;28;20034;-68
2023/07/25 09:37:24;;;;;;;83.47;57.33;;;32.70;99.90;;;;;;5014623;28;20025;-67
2023/07/25 09:39:50;;;;;;;26.63;18.65;;;32.70;99.90;;;;;;5014723;28;20112;-68
2023/07/25 09:42:22;;;;;;;14.00;12.02;;;32.70;99.90;;;;;;5014262;28;20446;-68
2023/07/25 09:44:51;;;;;;;12.60;10.43;;;32.70;99.90;;;;;;5014607;28;20053;-66
2023/07/25 09:47:28;;;;;;;26.92;22.13;;;32.60;99.90;;;;;;5021116;28;20038;-66
2023/07/25 09:49:56;;;;;;;127.18;97.38;;;32.60;99.90;;;;;;5023177;28;20041;-65
2023/07/25 09:52:24;;;;;;;42.25;25.98;;;32.60;99.90;;;;;;5023144;28;20021;-69
2023/07/25 09:54:51;;;;;;;47.55;37.85;;;32.60;99.90;;;;;;5024620;28;20025;-69
2023/07/25 09:57:18;;;;;;;149.82;108.43;;;32.60;99.90;;;;;;5022624;28;20018;-67
2023/07/25 09:59:47;;;;;;;39.72;24.88;;;32.50;99.90;;;;;;5024053;28;20026;-67
2023/07/25 10:02:15;;;;;;;26.88;19.55;;;32.50;99.90;;;;;;5022273;28;20105;-69
2023/07/25 10:04:42;;;;;;;29.30;19.35;;;32.40;99.90;;;;;;5014898;28;20086;-69
2023/07/25 10:07:09;;;;;;;31.00;19.60;;;32.30;99.90;;;;;;5018437;28;20493;-70
2023/07/25 10:09:35;;;;;;;38.25;26.67;;;32.30;99.90;;;;;;5025565;28;20108;-73
2023/07/25 10:12:03;;;;;;;224.48;140.82;;;32.20;99.90;;;;;;5006335;28;20501;-70
2023/07/25 10:14:30;;;;;;;223.07;122.10;;;32.20;99.90;;;;;;5024160;28;20371;-67
2023/07/25 10:16:58;;;;;;;172.20;98.93;;;32.10;99.90;;;;;;5023439;28;20018;-69
2023/07/25 10:19:25;;;;;;;250.65;114.85;;;32.10;99.90;;;;;;5022085;28;20018;-69
2023/07/25 10:21:53;;;;;;;254.20;97.75;;;32.00;99.90;;;;;;5021461;28;20030;-70
2023/07/25 10:24:22;;;;;;;176.43;68.05;;;32.00;99.90;;;;;;5021008;28;20422;-69
2023/07/25 10:27:00;;;;;;;143.48;50.80;;;31.90;99.90;;;;;;5021399;28;20072;-71
2023/07/25 10:29:42;;;;;;;244.02;71.20;;;31.90;99.90;;;;;;5022313;28;20108;-68
2023/07/25 10:32:11;;;;;;;141.77;58.30;;;31.80;99.90;;;;;;5022553;28;20030;-69
2023/07/25 10:34:49;;;;;;;140.75;54.78;;;31.80;99.90;;;;;;5021983;28;20030;-71
2023/07/25 10:37:41;;;;;;;135.30;59.05;;;31.80;99.90;;;;;;5026381;28;20017;-64
2023/07/25 10:40:11;;;;;;;;;;;31.80;99.90;;;;;;5022527;28;20030;-65
2023/07/25 10:42:47;;;;;;;116.85;61.47;;;31.70;99.90;;;;;;5018367;28;19905;-68
2023/07/25 10:45:33;;;;;;;76.95;47.85;;;31.70;99.90;;;;;;5025972;28;20052;-66
2023/07/25 10:48:00;;;;;;;40.10;28.50;;;31.70;99.90;;;;;;5024643;28;20021;-65
2023/07/25 10:50:50;;;;;;;41.13;28.60;;;31.70;99.90;;;;;;5025814;28;20022;-68
2023/07/25 10:53:21;;;;;;;41.20;29.48;;;31.60;99.90;;;;;;5023928;28;20363;-64
2023/07/25 10:56:08;;;;;;;41.33;28.83;;;31.60;99.90;;;;;;5025134;28;20053;-66
2023/07/25 10:58:56;;;;;;;45.00;30.08;;;31.50;99.90;;;;;;5023848;28;20026;-66
2023/07/25 11:01:32;;;;;;;48.95;31.88;;;31.50;99.90;;;;;;5026413;28;20040;-68
2023/07/25 11:04:20;;;;;;;54.00;36.13;;;31.50;99.90;;;;;;5021909;28;20031;-64
2023/07/25 11:06:50;;;;;;;54.47;37.45;;;31.50;99.90;;;;;;5026976;28;20029;-65
2023/07/25 11:09:17;;;;;;;61.35;40.35;;;31.50;99.90;;;;;;5022334;28;20022;-65
2023/07/25 11:11:46;;;;;;;64.25;44.63;;;31.50;99.90;;;;;;5026610;28;20037;-66
2023/07/25 11:14:15;;;;;;;65.28;46.33;;;31.40;99.90;;;;;;5022301;28;20506;-64
2023/07/25 11:16:43;;;;;;;63.88;45.85;;;31.40;99.90;;;;;;5026586;28;20319;-64
2023/07/25 11:19:10;;;;;;;63.42;43.08;;;31.40;99.90;;;;;;5028459;28;20018;-64
2023/07/25 11:21:41;;;;;;;64.82;41.42;;;31.40;99.90;;;;;;5032670;28;20030;-65
2023/07/25 11:24:09;;;;;;;57.05;39.20;;;31.40;99.90;;;;;;5027796;28;20467;-65
2023/07/25 11:26:37;;;;;;;64.30;41.42;;;31.30;99.90;;;;;;5032662;28;20028;-65
2023/07/25 11:29:07;;;;;;;67.85;43.33;;;31.30;99.90;;;;;;5032879;28;20088;-65
2023/07/25 11:31:36;;;;;;;59.58;39.88;;;31.30;99.90;;;;;;5030478;28;20103;-64
2023/07/25 11:34:22;;;;;;;61.35;42.78;;;31.20;99.90;;;;;;5027413;28;20056;-65
2023/07/25 11:36:49;;;;;;;67.28;43.35;;;31.20;99.90;;;;;;5026106;28;20386;-65
2023/07/25 11:39:16;;;;;;;63.33;40.85;;;31.20;99.90;;;;;;5025312;28;20014;-65
2023/07/25 11:41:45;;;;;;;76.65;44.95;;;31.20;99.90;;;;;;5025688;28;20025;-66
2023/07/25 11:44:17;;;;;;;67.63;43.65;;;31.20;99.90;;;;;;5029258;28;20064;-67
2023/07/25 11:46:50;;;;;;;66.18;43.92;;;31.10;99.90;;;;;;5023070;28;20105;-65
2023/07/25 11:49:18;;;;;;;68.07;44.45;;;31.10;99.90;;;;;;5025786;28;20057;-66
2023/07/25 11:51:46;;;;;;;67.38;43.28;;;31.00;99.90;;;;;;5027324;28;20022;-66
2023/07/25 11:54:12;;;;;;;69.45;48.30;;;31.00;99.90;;;;;;5030855;28;20021;-65
2023/07/25 11:56:39;;;;;;;206.88;138.02;;;31.00;99.90;;;;;;5026952;28;20042;-67
2023/07/25 11:59:10;;;;;;;87.30;59.05;;;31.00;99.90;;;;;;5024906;28;20022;-66
2023/07/25 12:01:37;;;;;;;129.68;87.00;;;31.00;99.90;;;;;;5025316;28;20092;-67
2023/07/25 12:04:15;;;;;;;219.82;148.00;;;31.00;99.90;;;;;;5026798;28;20021;-67
2023/07/25 12:06:42;;;;;;;97.38;68.57;;;31.00;99.90;;;;;;5029601;28;20129;-65
2023/07/25 12:09:08;;;;;;;98.45;67.00;;;31.00;99.90;;;;;;5025478;28;20829;-66
2023/07/25 12:11:44;;;;;;;72.65;50.47;;;30.90;99.90;;;;;;5025724;28;20029;-66
2023/07/25 12:14:12;;;;;;;69.93;46.42;;;30.90;99.90;;;;;;5025978;28;20029;-66
2023/07/25 12:16:42;;;;;;;62.22;45.10;;;30.90;99.90;;;;;;5026194;28;20029;-66
2023/07/25 12:19:10;;;;;;;59.58;45.75;;;30.80;99.90;;;;;;5025095;28;20014;-66
2023/07/25 12:21:40;;;;;;;60.05;43.95;;;30.80;99.90;;;;;;5024848;28;20033;-66
2023/07/25 12:24:09;;;;;;;70.50;47.17;;;30.80;99.90;;;;;;5025968;28;20071;-68
2023/07/25 12:26:46;;;;;;;70.05;46.25;;;30.80;99.90;;;;;;5031803;28;20025;-66
2023/07/25 12:29:16;;;;;;;62.50;47.47;;;30.80;99.90;;;;;;5024304;28;20034;-65
2023/07/25 12:31:43;;;;;;;60.13;42.22;;;30.70;99.90;;;;;;5024281;28;20088;-65